Gordon Heights, New York
Current Conditions -  °F | °C
As of 12:56 AM on Saturday 25 Oct 2014 (Local Time) from KHWV Reporting Station
Clear Clear  
Wind Chill: 12°   Ceiling: Unl
Heat Index: 12°   Visibility: 10mi
Dew Point:   Wind: 10mph
Humidity: 69%   Direction: 330°NNW
Pressure: 29.82"   Gusts: NA
Location:  40.8228°N, 72.9822°W
Report Text: KHWV 250456Z AUTO 33009KT 10SM CLR 12/07 A2982 RMK AO2 SLP099 T01220067 401330089 TSNO
Loading
Personal Weather Stations






























Interactive Weather Map
Tropical Storm Tracking
New forecast layout! Learn more

10-Day Weather Forecast

Advertisements
Track Severe Weather on mobile